sensor_id;sensor_type;location;lat;lon;timestamp;pressure;altitude;pressure_sealevel;temperature;humidity
55757;BME280;41676;44.610;44.078;2024-02-14T00:03:39;100058.75;;;6.31;100.00
55757;BME280;41676;44.610;44.078;2024-02-14T00:08:40;100044.41;;;6.34;100.00
55757;BME280;41676;44.610;44.078;2024-02-14T00:13:41;100017.56;;;6.21;100.00
55757;BME280;41676;44.610;44.078;2024-02-14T00:18:41;100025.03;;;6.25;100.00
55757;BME280;41676;44.610;44.078;2024-02-14T00:23:42;99974.66;;;5.91;100.00
55757;BME280;41676;44.610;44.078;2024-02-14T00:28:44;100044.56;;;6.32;100.00
55757;BME280;41676;44.610;44.078;2024-02-14T00:33:44;100062.34;;;6.30;100.00
55757;BME280;41676;44.610;44.078;2024-02-14T00:38:46;100037.69;;;6.22;100.00
55757;BME280;41676;44.610;44.078;2024-02-14T00:43:47;100058.00;;;6.39;100.00
55757;BME280;41676;44.610;44.078;2024-02-14T00:48:48;100059.56;;;6.32;100.00
55757;BME280;41676;44.610;44.078;2024-02-14T00:53:48;100028.69;;;6.14;100.00
55757;BME280;41676;44.610;44.078;2024-02-14T00:58:49;100066.91;;;6.38;100.00
55757;BME280;41676;44.610;44.078;2024-02-14T01:03:50;100059.28;;;6.35;100.00
55757;BME280;41676;44.610;44.078;2024-02-14T01:08:51;100069.91;;;6.43;100.00
55757;BME280;41676;44.610;44.078;2024-02-14T01:13:52;100074.41;;;6.33;100.00
55757;BME280;41676;44.610;44.078;2024-02-14T01:18:53;100083.59;;;6.29;100.00
55757;BME280;41676;44.610;44.078;2024-02-14T01:23:54;100076.22;;;6.32;100.00
55757;BME280;41676;44.610;44.078;2024-02-14T01:28:54;100073.06;;;6.29;100.00
55757;BME280;41676;44.610;44.078;2024-02-14T01:33:56;100076.66;;;6.28;100.00
55757;BME280;41676;44.610;44.078;2024-02-14T01:38:57;100078.88;;;6.32;100.00
55757;BME280;41676;44.610;44.078;2024-02-14T01:43:58;100064.34;;;6.18;100.00
55757;BME280;41676;44.610;44.078;2024-02-14T01:49:00;100077.63;;;6.27;100.00
55757;BME280;41676;44.610;44.078;2024-02-14T01:54:02;100077.28;;;6.12;100.00
55757;BME280;41676;44.610;44.078;2024-02-14T01:59:03;100097.03;;;6.08;100.00
55757;BME280;41676;44.610;44.078;2024-02-14T02:04:06;100097.19;;;5.97;100.00
55757;BME280;41676;44.610;44.078;2024-02-14T02:09:07;100056.56;;;5.80;100.00
55757;BME280;41676;44.610;44.078;2024-02-14T02:14:08;100109.94;;;6.11;100.00
55757;BME280;41676;44.610;44.078;2024-02-14T02:19:09;100108.53;;;6.07;100.00
55757;BME280;41676;44.610;44.078;2024-02-14T02:24:10;100113.28;;;6.03;100.00
55757;BME280;41676;44.610;44.078;2024-02-14T02:29:10;100094.84;;;5.93;100.00
55757;BME280;41676;44.610;44.078;2024-02-14T02:34:12;100107.31;;;5.91;100.00
55757;BME280;41676;44.610;44.078;2024-02-14T02:39:13;100124.13;;;5.90;100.00
55757;BME280;41676;44.610;44.078;2024-02-14T02:44:14;100133.66;;;5.91;100.00
55757;BME280;41676;44.610;44.078;2024-02-14T02:49:15;100142.31;;;5.93;100.00
55757;BME280;41676;44.610;44.078;2024-02-14T02:54:15;100101.13;;;5.73;100.00
55757;BME280;41676;44.610;44.078;2024-02-14T02:59:16;100150.19;;;6.03;100.00
55757;BME280;41676;44.610;44.078;2024-02-14T03:04:17;100132.88;;;5.81;100.00
55757;BME280;41676;44.610;44.078;2024-02-14T03:09:19;100091.84;;;5.59;100.00
55757;BME280;41676;44.610;44.078;2024-02-14T03:14:20;100145.03;;;5.92;100.00
55757;BME280;41676;44.610;44.078;2024-02-14T03:19:20;100093.00;;;5.57;100.00
55757;BME280;41676;44.610;44.078;2024-02-14T03:24:24;100152.69;;;5.85;100.00
55757;BME280;41676;44.610;44.078;2024-02-14T03:29:27;100168.69;;;5.84;100.00
55757;BME280;41676;44.610;44.078;2024-02-14T03:34:28;100162.28;;;5.77;100.00
55757;BME280;41676;44.610;44.078;2024-02-14T03:39:30;100168.97;;;5.81;100.00
55757;BME280;41676;44.610;44.078;2024-02-14T03:44:31;100044.38;;;5.02;100.00
55757;BME280;41676;44.610;44.078;2024-02-14T03:49:32;100137.63;;;5.58;100.00
55757;BME280;41676;44.610;44.078;2024-02-14T03:54:33;100192.25;;;5.85;100.00
55757;BME280;41676;44.610;44.078;2024-02-14T03:59:38;100116.00;;;5.35;100.00
55757;BME280;41676;44.610;44.078;2024-02-14T04:04:42;100182.25;;;5.79;100.00
55757;BME280;41676;44.610;44.078;2024-02-14T04:09:42;100145.13;;;5.53;100.00
55757;BME280;41676;44.610;44.078;2024-02-14T04:14:43;100200.16;;;5.85;100.00
55757;BME280;41676;44.610;44.078;2024-02-14T04:19:44;100193.63;;;5.80;100.00
55757;BME280;41676;44.610;44.078;2024-02-14T04:24:45;100201.41;;;5.91;100.00
55757;BME280;41676;44.610;44.078;2024-02-14T04:29:46;100160.09;;;5.53;100.00
55757;BME280;41676;44.610;44.078;2024-02-14T04:34:47;100212.50;;;5.85;100.00
55757;BME280;41676;44.610;44.078;2024-02-14T04:39:49;100220.59;;;5.93;100.00
55757;BME280;41676;44.610;44.078;2024-02-14T04:44:50;100235.53;;;5.92;100.00
55757;BME280;41676;44.610;44.078;2024-02-14T04:49:50;100233.75;;;6.03;100.00
55757;BME280;41676;44.610;44.078;2024-02-14T04:54:52;100241.53;;;6.04;100.00
55757;BME280;41676;44.610;44.078;2024-02-14T04:59:52;100148.59;;;5.44;100.00
55757;BME280;41676;44.610;44.078;2024-02-14T05:04:53;100230.28;;;6.02;100.00
55757;BME280;41676;44.610;44.078;2024-02-14T05:09:55;100248.00;;;6.10;100.00
55757;BME280;41676;44.610;44.078;2024-02-14T05:14:57;100259.69;;;6.17;100.00
55757;BME280;41676;44.610;44.078;2024-02-14T05:19:57;100249.69;;;6.11;100.00
55757;BME280;41676;44.610;44.078;2024-02-14T05:24:58;100187.25;;;5.82;100.00
55757;BME280;41676;44.610;44.078;2024-02-14T05:30:00;100261.03;;;6.31;100.00
55757;BME280;41676;44.610;44.078;2024-02-14T05:35:01;100215.84;;;5.97;100.00
55757;BME280;41676;44.610;44.078;2024-02-14T05:40:03;100260.47;;;6.27;100.00
55757;BME280;41676;44.610;44.078;2024-02-14T05:45:07;100264.06;;;6.36;100.00
55757;BME280;41676;44.610;44.078;2024-02-14T05:50:10;100275.34;;;6.38;100.00
55757;BME280;41676;44.610;44.078;2024-02-14T05:55:11;100280.91;;;6.25;100.00
55757;BME280;41676;44.610;44.078;2024-02-14T06:00:12;100278.66;;;6.30;100.00
55757;BME280;41676;44.610;44.078;2024-02-14T06:05:14;100281.97;;;6.42;100.00
55757;BME280;41676;44.610;44.078;2024-02-14T06:10:14;100281.72;;;6.35;100.00
55757;BME280;41676;44.610;44.078;2024-02-14T06:15:15;100274.22;;;6.40;100.00
55757;BME280;41676;44.610;44.078;2024-02-14T06:20:17;100267.97;;;6.42;100.00
55757;BME280;41676;44.610;44.078;2024-02-14T06:25:18;100287.66;;;6.47;100.00
55757;BME280;41676;44.610;44.078;2024-02-14T06:30:18;100287.09;;;6.53;100.00
55757;BME280;41676;44.610;44.078;2024-02-14T06:35:19;100312.38;;;6.56;100.00
55757;BME280;41676;44.610;44.078;2024-02-14T06:40:22;100309.19;;;6.52;100.00
55757;BME280;41676;44.610;44.078;2024-02-14T06:45:22;100299.56;;;6.61;100.00
55757;BME280;41676;44.610;44.078;2024-02-14T06:50:23;100290.63;;;6.72;100.00
55757;BME280;41676;44.610;44.078;2024-02-14T06:55:28;100312.28;;;6.85;100.00
55757;BME280;41676;44.610;44.078;2024-02-14T07:00:33;100305.84;;;6.88;100.00
55757;BME280;41676;44.610;44.078;2024-02-14T07:05:34;100304.78;;;6.80;100.00
55757;BME280;41676;44.610;44.078;2024-02-14T07:10:34;100251.16;;;6.80;100.00
55757;BME280;41676;44.610;44.078;2024-02-14T07:15:35;100217.94;;;6.77;100.00
55757;BME280;41676;44.610;44.078;2024-02-14T07:20:36;100298.78;;;7.43;100.00
55757;BME280;41676;44.610;44.078;2024-02-14T07:25:37;100294.47;;;7.42;100.00
55757;BME280;41676;44.610;44.078;2024-02-14T07:30:38;100246.03;;;7.24;100.00
55757;BME280;41676;44.610;44.078;2024-02-14T07:35:38;100256.16;;;7.28;100.00
55757;BME280;41676;44.610;44.078;2024-02-14T07:40:39;100246.31;;;7.48;100.00
55757;BME280;41676;44.610;44.078;2024-02-14T07:45:40;100313.00;;;8.14;100.00
55757;BME280;41676;44.610;44.078;2024-02-14T07:50:41;100273.72;;;7.83;100.00
55757;BME280;41676;44.610;44.078;2024-02-14T07:55:41;100275.31;;;7.94;100.00
55757;BME280;41676;44.610;44.078;2024-02-14T08:00:42;100298.56;;;8.26;100.00
55757;BME280;41676;44.610;44.078;2024-02-14T08:05:43;100283.16;;;8.74;100.00
55757;BME280;41676;44.610;44.078;2024-02-14T08:10:44;100284.19;;;8.81;100.00
55757;BME280;41676;44.610;44.078;2024-02-14T08:15:44;100268.03;;;8.92;100.00
55757;BME280;41676;44.610;44.078;2024-02-14T08:20:46;100267.28;;;9.16;100.00
55757;BME280;41676;44.610;44.078;2024-02-14T08:25:47;100263.22;;;8.96;100.00
55757;BME280;41676;44.610;44.078;2024-02-14T08:30:49;100174.13;;;8.52;100.00
55757;BME280;41676;44.610;44.078;2024-02-14T08:35:49;100254.28;;;9.72;100.00
55757;BME280;41676;44.610;44.078;2024-02-14T08:40:50;100203.22;;;10.02;100.00
55757;BME280;41676;44.610;44.078;2024-02-14T08:45:51;100250.47;;;10.40;100.00
55757;BME280;41676;44.610;44.078;2024-02-14T08:50:53;100235.38;;;10.24;100.00
55757;BME280;41676;44.610;44.078;2024-02-14T08:55:54;100245.16;;;10.56;100.00
55757;BME280;41676;44.610;44.078;2024-02-14T09:00:54;100222.06;;;10.96;98.94
55757;BME280;41676;44.610;44.078;2024-02-14T09:05:55;100188.66;;;11.02;97.30
55757;BME280;41676;44.610;44.078;2024-02-14T09:10:57;100240.41;;;11.45;95.68
55757;BME280;41676;44.610;44.078;2024-02-14T09:15:59;100224.75;;;11.73;94.46
55757;BME280;41676;44.610;44.078;2024-02-14T09:21:00;100236.66;;;11.85;93.66
55757;BME280;41676;44.610;44.078;2024-02-14T09:26:02;100166.94;;;11.67;92.57
55757;BME280;41676;44.610;44.078;2024-02-14T09:31:03;100189.09;;;11.82;90.17
55757;BME280;41676;44.610;44.078;2024-02-14T09:36:05;100233.25;;;12.15;89.65
55757;BME280;41676;44.610;44.078;2024-02-14T09:41:14;100233.47;;;12.43;85.41
55757;BME280;41676;44.610;44.078;2024-02-14T09:46:17;100179.38;;;11.90;88.34
55757;BME280;41676;44.610;44.078;2024-02-14T09:51:18;100130.50;;;11.68;88.12
55757;BME280;41676;44.610;44.078;2024-02-14T09:56:19;100211.88;;;12.38;88.22
55757;BME280;41676;44.610;44.078;2024-02-14T10:01:23;100213.16;;;12.42;88.05
55757;BME280;41676;44.610;44.078;2024-02-14T10:06:25;100216.09;;;12.47;87.92
55757;BME280;41676;44.610;44.078;2024-02-14T10:11:26;100198.09;;;12.34;86.10
55757;BME280;41676;44.610;44.078;2024-02-14T10:16:27;100175.00;;;11.97;87.13
55757;BME280;41676;44.610;44.078;2024-02-14T10:21:38;100185.56;;;12.20;86.07
55757;BME280;41676;44.610;44.078;2024-02-14T10:26:40;100191.00;;;12.56;86.37
55757;BME280;41676;44.610;44.078;2024-02-14T10:31:40;100156.50;;;12.48;85.86
55757;BME280;41676;44.610;44.078;2024-02-14T10:36:43;100178.75;;;12.76;85.04
55757;BME280;41676;44.610;44.078;2024-02-14T10:41:44;100187.09;;;13.24;84.35
55757;BME280;41676;44.610;44.078;2024-02-14T10:46:46;100173.94;;;13.38;83.70
55757;BME280;41676;44.610;44.078;2024-02-14T10:51:48;100177.56;;;13.73;82.74
55757;BME280;41676;44.610;44.078;2024-02-14T10:56:50;100173.16;;;14.15;81.77
55757;BME280;41676;44.610;44.078;2024-02-14T11:01:52;100154.06;;;13.90;80.06
55757;BME280;41676;44.610;44.078;2024-02-14T11:06:53;100167.06;;;14.00;80.42
55757;BME280;41676;44.610;44.078;2024-02-14T11:12:06;100158.72;;;14.09;78.54
55757;BME280;41676;44.610;44.078;2024-02-14T11:17:10;100120.16;;;13.90;79.04
55757;BME280;41676;44.610;44.078;2024-02-14T11:22:17;100166.56;;;14.18;77.84
55757;BME280;41676;44.610;44.078;2024-02-14T11:27:18;100170.22;;;13.82;79.81
55757;BME280;41676;44.610;44.078;2024-02-14T11:32:22;100125.75;;;13.24;79.58
55757;BME280;41676;44.610;44.078;2024-02-14T11:37:30;100178.53;;;13.44;78.70
55757;BME280;41676;44.610;44.078;2024-02-14T11:42:31;100182.00;;;13.44;80.31
55757;BME280;41676;44.610;44.078;2024-02-14T11:47:32;100167.53;;;13.32;79.98
55757;BME280;41676;44.610;44.078;2024-02-14T11:52:33;100133.19;;;13.08;79.86
55757;BME280;41676;44.610;44.078;2024-02-14T11:57:35;100166.94;;;13.37;79.23
55757;BME280;41676;44.610;44.078;2024-02-14T12:02:36;100168.41;;;13.39;79.87
55757;BME280;41676;44.610;44.078;2024-02-14T12:07:37;100128.25;;;13.05;80.33
55757;BME280;41676;44.610;44.078;2024-02-14T12:12:38;100179.91;;;13.40;80.41
55757;BME280;41676;44.610;44.078;2024-02-14T12:17:39;100189.63;;;13.47;81.01
55757;BME280;41676;44.610;44.078;2024-02-14T12:22:40;100176.63;;;13.38;80.62
55757;BME280;41676;44.610;44.078;2024-02-14T12:27:41;100183.47;;;13.26;81.66
55757;BME280;41676;44.610;44.078;2024-02-14T12:32:42;100146.66;;;12.99;81.39
55757;BME280;41676;44.610;44.078;2024-02-14T12:37:43;100186.88;;;13.19;81.49
55757;BME280;41676;44.610;44.078;2024-02-14T12:42:43;100191.56;;;13.17;81.46
55757;BME280;41676;44.610;44.078;2024-02-14T12:47:44;100191.56;;;13.17;81.25
55757;BME280;41676;44.610;44.078;2024-02-14T12:52:45;100197.16;;;13.22;81.63
55757;BME280;41676;44.610;44.078;2024-02-14T12:57:46;100204.28;;;13.37;81.79
55757;BME280;41676;44.610;44.078;2024-02-14T13:02:48;100198.72;;;13.32;82.09
55757;BME280;41676;44.610;44.078;2024-02-14T13:07:49;100186.97;;;13.26;82.21
55757;BME280;41676;44.610;44.078;2024-02-14T13:12:50;100210.22;;;13.32;82.09
55757;BME280;41676;44.610;44.078;2024-02-14T13:17:51;100224.84;;;13.21;82.42
55757;BME280;41676;44.610;44.078;2024-02-14T13:22:52;100225.13;;;13.12;82.49
55757;BME280;41676;44.610;44.078;2024-02-14T13:27:53;100220.47;;;12.99;83.77
55757;BME280;41676;44.610;44.078;2024-02-14T13:32:55;100215.25;;;12.91;84.64
55757;BME280;41676;44.610;44.078;2024-02-14T13:37:56;100221.69;;;12.82;85.20
55757;BME280;41676;44.610;44.078;2024-02-14T13:42:57;100205.44;;;12.62;86.31
55757;BME280;41676;44.610;44.078;2024-02-14T13:48:03;100222.81;;;12.57;87.10
55757;BME280;41676;44.610;44.078;2024-02-14T13:53:08;100220.69;;;12.38;87.77
55757;BME280;41676;44.610;44.078;2024-02-14T13:58:09;100199.53;;;12.07;88.32
55757;BME280;41676;44.610;44.078;2024-02-14T14:03:15;100233.31;;;12.06;89.49
55757;BME280;41676;44.610;44.078;2024-02-14T14:08:16;100231.44;;;11.92;89.97
55757;BME280;41676;44.610;44.078;2024-02-14T14:13:17;100244.97;;;11.82;91.13
55757;BME280;41676;44.610;44.078;2024-02-14T14:18:17;100238.13;;;11.65;92.28
55757;BME280;41676;44.610;44.078;2024-02-14T14:23:18;100219.66;;;11.40;93.13
55757;BME280;41676;44.610;44.078;2024-02-14T14:28:19;100263.41;;;11.38;94.03
55757;BME280;41676;44.610;44.078;2024-02-14T14:33:25;100263.97;;;11.25;95.65
55757;BME280;41676;44.610;44.078;2024-02-14T14:38:26;100273.38;;;11.05;96.33
55757;BME280;41676;44.610;44.078;2024-02-14T14:43:27;100278.91;;;10.87;97.33
55757;BME280;41676;44.610;44.078;2024-02-14T14:48:28;100285.75;;;10.73;97.99
55757;BME280;41676;44.610;44.078;2024-02-14T14:53:29;100229.41;;;10.22;98.79
55757;BME280;41676;44.610;44.078;2024-02-14T14:58:30;100289.81;;;10.44;99.86
55757;BME280;41676;44.610;44.078;2024-02-14T15:03:34;100195.44;;;9.68;100.00
55757;BME280;41676;44.610;44.078;2024-02-14T15:08:35;100297.44;;;9.98;100.00
55757;BME280;41676;44.610;44.078;2024-02-14T15:13:35;100304.72;;;9.80;100.00
55757;BME280;41676;44.610;44.078;2024-02-14T15:18:36;100282.28;;;9.50;100.00
55757;BME280;41676;44.610;44.078;2024-02-14T15:23:37;100310.28;;;9.44;100.00
55757;BME280;41676;44.610;44.078;2024-02-14T15:28:38;100318.97;;;9.20;100.00
55757;BME280;41676;44.610;44.078;2024-02-14T15:33:45;100305.50;;;9.05;100.00
55757;BME280;41676;44.610;44.078;2024-02-14T15:38:46;100316.53;;;8.93;100.00
55757;BME280;41676;44.610;44.078;2024-02-14T15:43:47;100316.28;;;8.78;100.00
55757;BME280;41676;44.610;44.078;2024-02-14T15:48:48;100327.31;;;8.65;100.00
55757;BME280;41676;44.610;44.078;2024-02-14T15:53:48;100354.25;;;8.60;100.00
55757;BME280;41676;44.610;44.078;2024-02-14T15:58:49;100342.09;;;8.76;100.00
55757;BME280;41676;44.610;44.078;2024-02-14T16:03:50;100352.44;;;8.87;100.00
55757;BME280;41676;44.610;44.078;2024-02-14T16:08:51;100301.72;;;8.74;100.00
55757;BME280;41676;44.610;44.078;2024-02-14T16:13:54;100362.22;;;9.21;100.00
55757;BME280;41676;44.610;44.078;2024-02-14T16:18:56;100371.72;;;9.31;100.00
55757;BME280;41676;44.610;44.078;2024-02-14T16:23:59;100361.94;;;9.32;100.00
55757;BME280;41676;44.610;44.078;2024-02-14T16:28:59;100339.63;;;9.08;100.00
55757;BME280;41676;44.610;44.078;2024-02-14T16:34:00;100391.41;;;9.29;100.00
55757;BME280;41676;44.610;44.078;2024-02-14T16:39:01;100399.53;;;9.27;100.00
55757;BME280;41676;44.610;44.078;2024-02-14T16:44:03;100347.69;;;8.99;100.00
55757;BME280;41676;44.610;44.078;2024-02-14T16:49:03;100348.44;;;8.83;100.00
55757;BME280;41676;44.610;44.078;2024-02-14T16:54:04;100406.19;;;9.05;100.00
55757;BME280;41676;44.610;44.078;2024-02-14T16:59:05;100418.56;;;8.97;100.00
55757;BME280;41676;44.610;44.078;2024-02-14T17:04:06;100418.66;;;8.87;100.00
55757;BME280;41676;44.610;44.078;2024-02-14T17:09:07;100425.00;;;8.68;100.00
55757;BME280;41676;44.610;44.078;2024-02-14T17:14:08;100426.22;;;8.56;100.00
55757;BME280;41676;44.610;44.078;2024-02-14T17:19:10;100399.78;;;8.10;100.00
55757;BME280;41676;44.610;44.078;2024-02-14T17:24:11;100452.72;;;8.28;100.00
55757;BME280;41676;44.610;44.078;2024-02-14T17:29:12;100424.47;;;7.83;100.00
55757;BME280;41676;44.610;44.078;2024-02-14T17:34:13;100475.63;;;7.92;100.00
55757;BME280;41676;44.610;44.078;2024-02-14T17:39:14;100502.25;;;7.90;100.00
55757;BME280;41676;44.610;44.078;2024-02-14T17:44:14;100518.72;;;7.84;100.00
55757;BME280;41676;44.610;44.078;2024-02-14T17:49:15;100467.34;;;7.49;100.00
55757;BME280;41676;44.610;44.078;2024-02-14T17:54:17;100502.50;;;7.69;100.00
55757;BME280;41676;44.610;44.078;2024-02-14T17:59:18;100522.72;;;7.88;100.00
55757;BME280;41676;44.610;44.078;2024-02-14T18:04:19;100514.78;;;7.88;100.00
55757;BME280;41676;44.610;44.078;2024-02-14T18:09:20;100518.41;;;7.87;100.00
55757;BME280;41676;44.610;44.078;2024-02-14T18:14:21;100522.19;;;7.85;100.00
55757;BME280;41676;44.610;44.078;2024-02-14T18:19:21;100416.41;;;7.20;100.00
55757;BME280;41676;44.610;44.078;2024-02-14T18:24:22;100497.28;;;7.77;100.00
55757;BME280;41676;44.610;44.078;2024-02-14T18:29:23;100484.41;;;7.65;100.00
55757;BME280;41676;44.610;44.078;2024-02-14T18:34:24;100466.94;;;7.54;100.00
55757;BME280;41676;44.610;44.078;2024-02-14T18:39:25;100457.91;;;7.47;100.00
55757;BME280;41676;44.610;44.078;2024-02-14T18:44:26;100448.06;;;7.39;100.00
55757;BME280;41676;44.610;44.078;2024-02-14T18:49:26;100444.47;;;7.30;100.00
55757;BME280;41676;44.610;44.078;2024-02-14T18:54:27;100341.78;;;6.61;100.00
55757;BME280;41676;44.610;44.078;2024-02-14T18:59:30;100423.69;;;7.08;100.00
55757;BME280;41676;44.610;44.078;2024-02-14T19:04:34;100369.81;;;6.81;100.00
55757;BME280;41676;44.610;44.078;2024-02-14T19:09:35;100414.78;;;7.09;100.00
55757;BME280;41676;44.610;44.078;2024-02-14T19:14:36;100425.38;;;6.90;100.00
55757;BME280;41676;44.610;44.078;2024-02-14T19:19:38;100370.16;;;6.39;100.00
55757;BME280;41676;44.610;44.078;2024-02-14T19:24:39;100434.03;;;6.62;100.00
55757;BME280;41676;44.610;44.078;2024-02-14T19:29:39;100396.53;;;6.39;100.00
55757;BME280;41676;44.610;44.078;2024-02-14T19:34:40;100463.22;;;6.61;100.00
55757;BME280;41676;44.610;44.078;2024-02-14T19:39:41;100426.97;;;6.24;100.00
55757;BME280;41676;44.610;44.078;2024-02-14T19:44:42;100424.59;;;6.11;100.00
55757;BME280;41676;44.610;44.078;2024-02-14T19:49:43;100444.81;;;6.01;100.00
55757;BME280;41676;44.610;44.078;2024-02-14T19:54:44;100497.91;;;6.17;100.00
55757;BME280;41676;44.610;44.078;2024-02-14T19:59:44;100394.13;;;5.38;100.00
55757;BME280;41676;44.610;44.078;2024-02-14T20:04:45;100526.44;;;5.93;100.00
55757;BME280;41676;44.610;44.078;2024-02-14T20:09:46;100547.03;;;5.78;100.00
55757;BME280;41676;44.610;44.078;2024-02-14T20:14:47;100518.72;;;5.49;100.00
55757;BME280;41676;44.610;44.078;2024-02-14T20:19:47;100577.09;;;5.76;100.00
55757;BME280;41676;44.610;44.078;2024-02-14T20:24:48;100581.66;;;5.73;100.00
55757;BME280;41676;44.610;44.078;2024-02-14T20:29:49;100576.09;;;5.67;100.00
55757;BME280;41676;44.610;44.078;2024-02-14T20:34:50;100490.22;;;5.13;100.00
55757;BME280;41676;44.610;44.078;2024-02-14T20:39:51;100571.53;;;5.69;100.00
55757;BME280;41676;44.610;44.078;2024-02-14T20:44:51;100536.84;;;5.43;100.00
55757;BME280;41676;44.610;44.078;2024-02-14T20:49:53;100524.00;;;5.29;100.00
55757;BME280;41676;44.610;44.078;2024-02-14T20:54:57;100572.31;;;5.60;100.00
55757;BME280;41676;44.610;44.078;2024-02-14T20:59:58;100570.31;;;5.52;100.00
55757;BME280;41676;44.610;44.078;2024-02-14T21:04:58;100560.09;;;5.38;100.00
55757;BME280;41676;44.610;44.078;2024-02-14T21:10:00;100547.44;;;5.32;100.00
55757;BME280;41676;44.610;44.078;2024-02-14T21:15:01;100562.75;;;5.38;100.00
55757;BME280;41676;44.610;44.078;2024-02-14T21:20:02;100514.25;;;4.98;100.00
55757;BME280;41676;44.610;44.078;2024-02-14T21:25:03;100544.56;;;5.14;100.00
55757;BME280;41676;44.610;44.078;2024-02-14T21:30:05;100566.09;;;5.19;100.00
55757;BME280;41676;44.610;44.078;2024-02-14T21:35:06;100560.19;;;5.06;100.00
55757;BME280;41676;44.610;44.078;2024-02-14T21:40:08;100574.44;;;5.03;100.00
55757;BME280;41676;44.610;44.078;2024-02-14T21:45:11;100527.06;;;4.71;100.00
55757;BME280;41676;44.610;44.078;2024-02-14T21:50:12;100571.94;;;4.90;100.00
55757;BME280;41676;44.610;44.078;2024-02-14T21:55:12;100555.03;;;4.72;100.00
55757;BME280;41676;44.610;44.078;2024-02-14T22:00:14;100592.44;;;4.87;100.00
55757;BME280;41676;44.610;44.078;2024-02-14T22:05:14;100590.38;;;4.90;100.00
55757;BME280;41676;44.610;44.078;2024-02-14T22:10:15;100532.00;;;4.64;100.00
55757;BME280;41676;44.610;44.078;2024-02-14T22:15:16;100596.50;;;4.91;100.00
55757;BME280;41676;44.610;44.078;2024-02-14T22:20:17;100587.19;;;4.75;100.00
55757;BME280;41676;44.610;44.078;2024-02-14T22:25:20;100605.47;;;4.88;100.00
55757;BME280;41676;44.610;44.078;2024-02-14T22:30:21;100612.69;;;4.75;100.00
55757;BME280;41676;44.610;44.078;2024-02-14T22:35:22;100570.50;;;4.54;100.00
55757;BME280;41676;44.610;44.078;2024-02-14T22:40:23;100544.63;;;4.38;100.00
55757;BME280;41676;44.610;44.078;2024-02-14T22:45:24;100567.06;;;4.53;100.00
55757;BME280;41676;44.610;44.078;2024-02-14T22:50:24;100615.22;;;4.65;100.00
55757;BME280;41676;44.610;44.078;2024-02-14T22:55:25;100606.75;;;4.62;100.00
55757;BME280;41676;44.610;44.078;2024-02-14T23:00:29;100609.25;;;4.63;100.00
55757;BME280;41676;44.610;44.078;2024-02-14T23:05:30;100612.59;;;4.65;100.00
55757;BME280;41676;44.610;44.078;2024-02-14T23:10:31;100562.22;;;4.26;100.00
55757;BME280;41676;44.610;44.078;2024-02-14T23:15:32;100556.72;;;4.18;100.00
55757;BME280;41676;44.610;44.078;2024-02-14T23:20:33;100621.22;;;4.56;100.00
55757;BME280;41676;44.610;44.078;2024-02-14T23:25:37;100628.97;;;4.57;100.00
55757;BME280;41676;44.610;44.078;2024-02-14T23:30:37;100604.28;;;4.49;100.00
55757;BME280;41676;44.610;44.078;2024-02-14T23:35:40;100608.56;;;4.50;100.00
55757;BME280;41676;44.610;44.078;2024-02-14T23:40:42;100584.22;;;4.25;100.00
55757;BME280;41676;44.610;44.078;2024-02-14T23:45:43;100559.47;;;4.17;100.00
55757;BME280;41676;44.610;44.078;2024-02-14T23:50:44;100597.81;;;4.42;100.00
55757;BME280;41676;44.610;44.078;2024-02-14T23:55:49;100608.22;;;4.43;100.00
